Time;durP1;ratioP1;P1;durP2;ratioP2;P2;SDS_P1;SDS_P2;PMS_P1;PMS_P2;Temp;Humidity;BMP_temperature;BMP_pressure;BME280_temperature;BME280_humidity;BME280_pressure;Samples;Min_cycle;Max_cycle;Signal;HPM_P1;HPM_P2
2022/05/11 00:01:59;;;;;;;8.77;4.53;;;;;;;;;;5023878;28;20046;-65
2022/05/11 00:04:27;;;;;;;5.78;3.78;;;;;;;;;;5028198;28;20058;-65
2022/05/11 00:06:55;;;;;;;9.00;4.20;;;;;;;;;;5028634;28;20057;-66
2022/05/11 00:09:24;;;;;;;6.78;4.10;;;;;;;;;;5023682;28;20168;-65
2022/05/11 00:11:53;;;;;;;8.88;4.50;;;;;;;;;;5028983;28;20059;-64
2022/05/11 00:14:21;;;;;;;7.13;4.40;;;;;;;;;;5020113;28;20549;-65
2022/05/11 00:16:49;;;;;;;4.82;4.00;;;;;;;;;;5023135;28;20078;-64
2022/05/11 00:19:21;;;;;;;8.25;4.10;;;;;;;;;;5019879;28;20505;-66
2022/05/11 00:21:49;;;;;;;6.43;4.55;;;;;;;;;;5028975;28;20045;-65
2022/05/11 00:24:17;;;;;;;10.00;4.15;;;;;;;;;;5025784;28;20081;-65
2022/05/11 00:26:45;;;;;;;7.97;4.47;;;;;;;;;;5028329;28;20117;-64
2022/05/11 00:29:14;;;;;;;9.68;4.45;;;;;;;;;;5025515;28;20045;-65
2022/05/11 00:31:42;;;;;;;9.27;4.70;;;;;;;;;;5014457;28;20329;-64
2022/05/11 00:34:10;;;;;;;8.25;3.97;;;;;;;;;;5021494;28;20077;-65
2022/05/11 00:36:40;;;;;;;8.32;4.65;;;;;;;;;;5015757;28;20138;-65
2022/05/11 00:39:08;;;;;;;7.30;4.43;;;;;;;;;;5014785;28;20520;-64
2022/05/11 00:41:40;;;;;;;6.68;4.38;;;;;;;;;;5021145;28;20124;-65
2022/05/11 00:44:09;;;;;;;6.90;4.22;;;;;;;;;;5032084;28;20557;-64
2022/05/11 00:46:42;;;;;;;10.55;5.22;;;;;;;;;;5028773;28;20140;-65
2022/05/11 00:52:02;;;;;;;6.95;3.90;;;;;;;;;;5032458;28;20083;-66
2022/05/11 00:54:33;;;;;;;5.82;3.58;;;;;;;;;;5030286;28;20067;-66
2022/05/11 00:57:03;;;;;;;7.05;4.03;;;;;;;;;;5031607;28;20075;-66
2022/05/11 00:59:32;;;;;;;6.20;3.90;;;;;;;;;;5021812;28;20046;-65
2022/05/11 01:02:04;;;;;;;7.88;4.15;;;;;;;;;;5019472;28;20042;-67
2022/05/11 01:04:34;;;;;;;6.45;4.32;;;;;;;;;;5028654;28;20045;-66
2022/05/11 01:07:05;;;;;;;5.72;4.00;;;;;;;;;;5030257;28;20132;-65
2022/05/11 01:09:33;;;;;;;5.70;3.70;;;;;;;;;;5031674;28;20199;-65
2022/05/11 01:12:02;;;;;;;6.90;4.10;;;;;;;;;;5025920;28;20484;-65
2022/05/11 01:14:32;;;;;;;6.00;3.75;;;;;;;;;;5038521;28;20045;-66
2022/05/11 01:17:01;;;;;;;6.03;3.92;;;;;;;;;;5030079;28;20436;-66
2022/05/11 01:19:31;;;;;;;5.40;4.00;;;;;;;;;;5029513;28;20060;-65
2022/05/11 01:22:03;;;;;;;5.30;3.75;;;;;;;;;;5028524;28;20043;-66
2022/05/11 01:24:38;;;;;;;6.43;3.97;;;;;;;;;;5028673;28;20041;-66
2022/05/11 01:27:22;;;;;;;7.60;4.60;;;;;;;;;;5029685;28;20148;-66
2022/05/11 01:29:51;;;;;;;6.38;3.95;;;;;;;;;;5012875;28;20488;-65
2022/05/11 01:32:19;;;;;;;5.57;3.78;;;;;;;;;;5023795;28;20049;-66
2022/05/11 01:34:48;;;;;;;4.68;3.58;;;;;;;;;;5028678;28;20076;-65
2022/05/11 01:37:16;;;;;;;6.00;3.70;;;;;;;;;;5029749;28;20046;-65
2022/05/11 01:39:46;;;;;;;8.10;4.43;;;;;;;;;;5023611;28;20144;-65
2022/05/11 01:42:14;;;;;;;6.85;3.80;;;;;;;;;;5015021;28;20148;-64
2022/05/11 01:44:42;;;;;;;5.43;3.63;;;;;;;;;;5027636;28;20045;-69
2022/05/11 01:47:11;;;;;;;10.60;4.50;;;;;;;;;;5028010;28;20124;-65
2022/05/11 01:49:39;;;;;;;9.75;3.80;;;;;;;;;;5029109;28;20485;-64
2022/05/11 01:52:10;;;;;;;5.15;3.60;;;;;;;;;;5028972;28;20077;-65
2022/05/11 01:54:38;;;;;;;8.10;4.28;;;;;;;;;;5028779;28;20052;-64
2022/05/11 01:57:08;;;;;;;7.03;3.78;;;;;;;;;;5021342;28;20145;-65
2022/05/11 01:59:36;;;;;;;7.43;4.05;;;;;;;;;;5026210;28;20164;-65
2022/05/11 02:02:05;;;;;;;7.25;3.55;;;;;;;;;;5026639;28;20050;-65
2022/05/11 02:10:05;;;;;;;7.18;3.88;;;;;;;;;;5030209;28;20628;-66
2022/05/11 02:12:36;;;;;;;4.88;3.17;;;;;;;;;;5022134;28;20077;-64
2022/05/11 02:15:06;;;;;;;8.05;3.42;;;;;;;;;;5020923;28;20141;-64
2022/05/11 02:17:34;;;;;;;5.60;3.30;;;;;;;;;;5029619;28;20160;-64
2022/05/11 02:20:03;;;;;;;4.95;3.15;;;;;;;;;;5023114;28;20080;-65
2022/05/11 02:22:32;;;;;;;9.40;4.03;;;;;;;;;;5027541;28;20700;-65
2022/05/11 02:25:00;;;;;;;4.78;3.33;;;;;;;;;;5030893;28;20571;-65
2022/05/11 02:27:29;;;;;;;6.65;3.58;;;;;;;;;;5023669;28;20041;-64
2022/05/11 02:29:58;;;;;;;5.45;3.45;;;;;;;;;;5017137;28;20501;-66
2022/05/11 02:32:27;;;;;;;7.63;4.00;;;;;;;;;;5014932;28;20054;-65
2022/05/11 02:35:14;;;;;;;5.38;3.40;;;;;;;;;;5026881;28;20145;-65
2022/05/11 02:37:43;;;;;;;7.25;3.70;;;;;;;;;;5022508;28;20115;-66
2022/05/11 02:40:12;;;;;;;4.72;3.50;;;;;;;;;;5020626;28;20045;-64
2022/05/11 02:42:40;;;;;;;5.18;3.47;;;;;;;;;;5030108;28;20128;-66
2022/05/11 02:45:11;;;;;;;5.88;4.07;;;;;;;;;;5028035;28;20049;-64
2022/05/11 02:47:40;;;;;;;5.10;3.67;;;;;;;;;;5025032;28;20569;-65
2022/05/11 02:50:09;;;;;;;8.18;3.47;;;;;;;;;;5030752;28;20049;-65
2022/05/11 02:52:37;;;;;;;7.15;3.72;;;;;;;;;;5027030;28;20053;-70
2022/05/11 02:55:06;;;;;;;6.80;3.85;;;;;;;;;;5028499;28;20137;-67
2022/05/11 02:57:35;;;;;;;4.50;3.30;;;;;;;;;;5030631;28;20052;-65
2022/05/11 03:00:03;;;;;;;7.68;4.30;;;;;;;;;;5026150;28;20137;-65
2022/05/11 03:02:33;;;;;;;6.18;3.45;;;;;;;;;;5029420;28;20553;-65
2022/05/11 03:05:01;;;;;;;8.95;3.85;;;;;;;;;;4999690;28;20104;-66
2022/05/11 03:07:30;;;;;;;4.70;3.10;;;;;;;;;;5005933;28;20517;-66
2022/05/11 03:09:58;;;;;;;5.45;3.25;;;;;;;;;;5005925;28;20137;-65
2022/05/11 03:12:26;;;;;;;7.38;3.80;;;;;;;;;;5011300;28;20137;-66
2022/05/11 03:14:55;;;;;;;4.95;2.72;;;;;;;;;;5008016;28;20484;-65
2022/05/11 03:17:26;;;;;;;5.85;3.80;;;;;;;;;;5009566;28;20077;-64
2022/05/11 03:19:56;;;;;;;7.43;3.78;;;;;;;;;;5006468;28;20050;-64
2022/05/11 03:22:37;;;;;;;8.00;3.72;;;;;;;;;;5000771;28;20516;-64
2022/05/11 03:25:05;;;;;;;7.05;3.58;;;;;;;;;;5006897;28;20133;-64
2022/05/11 03:30:42;;;;;;;5.03;3.70;;;;;;;;;;5008733;28;20573;-65
2022/05/11 03:35:57;;;;;;;6.35;3.00;;;;;;;;;;5007408;28;20125;-64
2022/05/11 03:41:48;;;;;;;6.65;3.67;;;;;;;;;;4993897;28;20110;-67
2022/05/11 03:44:16;;;;;;;4.95;3.30;;;;;;;;;;5006736;28;20074;-65
2022/05/11 03:46:44;;;;;;;7.55;3.47;;;;;;;;;;4998716;28;20129;-64
2022/05/11 03:49:14;;;;;;;4.68;3.42;;;;;;;;;;5006474;28;20534;-64
2022/05/11 03:51:44;;;;;;;5.38;3.08;;;;;;;;;;5007133;28;20140;-64
2022/05/11 03:54:12;;;;;;;7.88;3.75;;;;;;;;;;5000205;28;20054;-64
2022/05/11 03:56:40;;;;;;;6.13;3.42;;;;;;;;;;5009330;28;20129;-66
2022/05/11 03:59:09;;;;;;;7.07;3.05;;;;;;;;;;5005094;28;20046;-65
2022/05/11 04:01:37;;;;;;;6.38;3.40;;;;;;;;;;5000670;28;20085;-66
2022/05/11 04:04:06;;;;;;;6.88;3.60;;;;;;;;;;5015711;28;20057;-67
2022/05/11 04:06:34;;;;;;;6.85;3.13;;;;;;;;;;5026886;28;20056;-64
2022/05/11 04:09:04;;;;;;;6.57;3.40;;;;;;;;;;5028118;28;20128;-65
2022/05/11 04:11:33;;;;;;;5.57;3.28;;;;;;;;;;5026835;28;20144;-65
2022/05/11 04:14:01;;;;;;;3.83;2.80;;;;;;;;;;5026578;28;20134;-66
2022/05/11 04:16:30;;;;;;;3.78;2.80;;;;;;;;;;5023730;28;20252;-64
2022/05/11 04:18:59;;;;;;;5.82;2.97;;;;;;;;;;5028411;28;20099;-65
2022/05/11 04:21:28;;;;;;;6.43;3.40;;;;;;;;;;5032040;28;20053;-65
2022/05/11 04:23:56;;;;;;;8.13;3.25;;;;;;;;;;5030617;28;20152;-65
2022/05/11 04:26:26;;;;;;;6.13;3.00;;;;;;;;;;5034284;28;20049;-64
2022/05/11 04:28:54;;;;;;;9.10;3.40;;;;;;;;;;5033049;28;20418;-64
2022/05/11 04:31:22;;;;;;;5.95;3.47;;;;;;;;;;5031936;28;20073;-64
2022/05/11 04:33:51;;;;;;;7.57;3.33;;;;;;;;;;5029307;28;20041;-65
2022/05/11 04:36:21;;;;;;;6.57;3.03;;;;;;;;;;5033840;28;20136;-64
2022/05/11 04:38:49;;;;;;;5.60;3.25;;;;;;;;;;5029700;28;20046;-64
2022/05/11 04:41:18;;;;;;;3.60;2.67;;;;;;;;;;5029771;28;20133;-65
2022/05/11 04:43:52;;;;;;;;;;;;;;;;;;5032659;28;20129;-64
2022/05/11 04:46:21;;;;;;;5.50;2.78;;;;;;;;;;5025956;28;20443;-64
2022/05/11 04:48:50;;;;;;;5.00;3.08;;;;;;;;;;5021676;28;20042;-67
2022/05/11 04:51:18;;;;;;;6.32;2.83;;;;;;;;;;5031924;28;20132;-65
2022/05/11 04:53:46;;;;;;;5.38;3.15;;;;;;;;;;5025344;28;20073;-65
2022/05/11 04:56:14;;;;;;;4.50;2.97;;;;;;;;;;5034663;28;20685;-64
2022/05/11 04:58:44;;;;;;;7.82;3.97;;;;;;;;;;5030905;28;20077;-65
2022/05/11 05:01:12;;;;;;;4.90;2.92;;;;;;;;;;5030988;28;20103;-65
2022/05/11 05:03:41;;;;;;;6.20;3.25;;;;;;;;;;5023737;28;20058;-64
2022/05/11 05:06:10;;;;;;;4.05;2.88;;;;;;;;;;5026938;28;20073;-65
2022/05/11 05:08:38;;;;;;;6.88;3.38;;;;;;;;;;5018923;28;20057;-65
2022/05/11 05:11:06;;;;;;;5.07;3.17;;;;;;;;;;5030904;28;20588;-65
2022/05/11 05:13:34;;;;;;;5.00;2.65;;;;;;;;;;5037619;28;20068;-65
2022/05/11 05:16:06;;;;;;;3.72;2.80;;;;;;;;;;5025003;28;20041;-65
2022/05/11 05:18:35;;;;;;;4.05;2.50;;;;;;;;;;5025319;28;20053;-65
2022/05/11 05:21:07;;;;;;;4.72;3.00;;;;;;;;;;5016959;28;20053;-65
2022/05/11 05:23:35;;;;;;;4.70;2.90;;;;;;;;;;5053147;28;20551;-65
2022/05/11 05:26:07;;;;;;;9.82;3.25;;;;;;;;;;5039888;28;20060;-65
2022/05/11 05:31:22;;;;;;;4.18;2.78;;;;;;;;;;5031497;28;20049;-64
2022/05/11 05:33:58;;;;;;;5.15;3.13;;;;;;;;;;5026825;28;20405;-65
2022/05/11 05:36:28;;;;;;;5.40;2.70;;;;;;;;;;5031567;28;20091;-67
2022/05/11 05:38:58;;;;;;;6.57;2.88;;;;;;;;;;5017102;28;20111;-66
2022/05/11 05:41:27;;;;;;;5.15;3.45;;;;;;;;;;5028084;28;20046;-66
2022/05/11 05:43:55;;;;;;;5.82;3.05;;;;;;;;;;5027978;28;20048;-65
2022/05/11 05:46:24;;;;;;;7.10;3.22;;;;;;;;;;5020289;28;20145;-65
2022/05/11 05:48:53;;;;;;;7.97;3.05;;;;;;;;;;5017491;28;20048;-65
2022/05/11 05:51:22;;;;;;;3.53;2.45;;;;;;;;;;5029763;28;20690;-65
2022/05/11 05:53:51;;;;;;;7.60;2.75;;;;;;;;;;5032363;28;20057;-64
2022/05/11 05:56:20;;;;;;;6.68;2.97;;;;;;;;;;5012714;28;20137;-64
2022/05/11 05:58:48;;;;;;;6.43;3.08;;;;;;;;;;5026326;28;20433;-64
2022/05/11 06:01:17;;;;;;;5.70;2.75;;;;;;;;;;5032352;28;20152;-65
2022/05/11 06:03:46;;;;;;;5.45;3.13;;;;;;;;;;5031748;28;20092;-64
2022/05/11 06:06:14;;;;;;;5.30;2.50;;;;;;;;;;5032237;28;20088;-65
2022/05/11 06:08:42;;;;;;;6.15;2.95;;;;;;;;;;5020818;28;20046;-65
2022/05/11 06:11:12;;;;;;;7.00;2.88;;;;;;;;;;5012631;28;20096;-64
2022/05/11 06:13:41;;;;;;;5.25;2.90;;;;;;;;;;5012863;28;20128;-64
2022/05/11 06:16:12;;;;;;;4.80;2.67;;;;;;;;;;5020678;28;20095;-68
2022/05/11 06:18:41;;;;;;;4.63;2.83;;;;;;;;;;5011782;28;20490;-64
2022/05/11 06:21:09;;;;;;;6.20;2.55;;;;;;;;;;5018994;28;20417;-66
2022/05/11 06:23:38;;;;;;;4.38;2.67;;;;;;;;;;5030970;28;20187;-65
2022/05/11 06:26:07;;;;;;;6.93;2.85;;;;;;;;;;5031904;28;20136;-64
2022/05/11 06:28:39;;;;;;;5.20;3.05;;;;;;;;;;5023604;28;20054;-64
2022/05/11 06:31:23;;;;;;;4.45;2.58;;;;;;;;;;5019918;28;20047;-64
2022/05/11 06:33:53;;;;;;;3.83;2.40;;;;;;;;;;5031770;28;20148;-65
2022/05/11 06:36:24;;;;;;;6.90;2.22;;;;;;;;;;5027635;28;20069;-64
2022/05/11 06:38:53;;;;;;;5.03;2.45;;;;;;;;;;5030337;28;20077;-65
2022/05/11 06:41:23;;;;;;;4.20;2.63;;;;;;;;;;5029648;28;20080;-65
2022/05/11 06:43:54;;;;;;;3.42;2.55;;;;;;;;;;5031740;28;20123;-64
2022/05/11 06:46:23;;;;;;;4.57;3.00;;;;;;;;;;5019363;28;20061;-64
2022/05/11 06:48:52;;;;;;;3.08;1.95;;;;;;;;;;5013713;28;20551;-64
2022/05/11 06:51:21;;;;;;;3.38;2.38;;;;;;;;;;5030314;28;20129;-65
2022/05/11 06:59:25;;;;;;;3.53;2.47;;;;;;;;;;5030976;28;20662;-64
2022/05/11 07:01:55;;;;;;;4.43;2.75;;;;;;;;;;5031269;28;20443;-65
2022/05/11 07:04:23;;;;;;;4.07;2.67;;;;;;;;;;5029732;28;20123;-64
2022/05/11 07:06:53;;;;;;;5.38;2.50;;;;;;;;;;5029483;28;20049;-64
2022/05/11 07:09:22;;;;;;;4.55;3.28;;;;;;;;;;5030299;28;20050;-64
2022/05/11 07:14:38;;;;;;;4.07;2.90;;;;;;;;;;5026884;28;20123;-67
2022/05/11 07:17:08;;;;;;;4.53;2.67;;;;;;;;;;5030885;28;20194;-65
2022/05/11 07:19:37;;;;;;;4.45;2.90;;;;;;;;;;5024251;28;20490;-66
2022/05/11 07:22:05;;;;;;;4.53;2.53;;;;;;;;;;5028003;28;20493;-64
2022/05/11 07:24:34;;;;;;;4.93;2.47;;;;;;;;;;5027578;28;20049;-65
2022/05/11 07:27:03;;;;;;;4.45;2.70;;;;;;;;;;5027988;28;20053;-69
2022/05/11 07:29:32;;;;;;;4.82;2.88;;;;;;;;;;5027473;28;20374;-65
2022/05/11 07:32:02;;;;;;;3.92;2.50;;;;;;;;;;5028188;28;20083;-65
2022/05/11 07:34:30;;;;;;;4.43;2.83;;;;;;;;;;5030340;28;20053;-65
2022/05/11 07:36:59;;;;;;;5.28;3.20;;;;;;;;;;5028578;28;20056;-65
2022/05/11 07:39:28;;;;;;;4.45;2.95;;;;;;;;;;5026443;28;20106;-65
2022/05/11 07:41:58;;;;;;;5.63;2.95;;;;;;;;;;5027110;28;20056;-66
2022/05/11 07:44:27;;;;;;;3.97;2.80;;;;;;;;;;5030535;28;20049;-66
2022/05/11 07:46:56;;;;;;;3.88;2.75;;;;;;;;;;5029163;28;20079;-65
2022/05/11 07:49:25;;;;;;;3.65;2.60;;;;;;;;;;5024302;28;20545;-65
2022/05/11 07:51:54;;;;;;;5.65;3.10;;;;;;;;;;5026331;28;20043;-68
2022/05/11 07:54:22;;;;;;;4.35;2.90;;;;;;;;;;5018528;28;20489;-65
2022/05/11 08:02:27;;;;;;;8.32;2.92;;;;;;;;;;5014973;28;20053;-68
2022/05/11 08:04:58;;;;;;;9.85;2.97;;;;;;;;;;5022955;28;20073;-65
2022/05/11 08:07:28;;;;;;;4.50;2.83;;;;;;;;;;5019054;28;20464;-68
2022/05/11 08:10:00;;;;;;;6.15;2.78;;;;;;;;;;5022286;28;20139;-67
2022/05/11 08:12:29;;;;;;;5.40;2.95;;;;;;;;;;5021413;28;20053;-66
2022/05/11 08:14:58;;;;;;;5.82;2.83;;;;;;;;;;5022745;28;20509;-66
2022/05/11 08:17:31;;;;;;;2.90;2.47;;;;;;;;;;5021704;28;20079;-65
2022/05/11 08:20:02;;;;;;;4.70;3.00;;;;;;;;;;5020766;28;20147;-66
2022/05/11 08:22:32;;;;;;;3.63;2.78;;;;;;;;;;5019909;28;20049;-66
2022/05/11 08:25:00;;;;;;;5.75;2.53;;;;;;;;;;5021813;28;20059;-66
2022/05/11 08:27:30;;;;;;;5.90;2.97;;;;;;;;;;5017375;28;20472;-66
2022/05/11 08:35:59;;;;;;;6.63;2.97;;;;;;;;;;5020525;28;20519;-69
2022/05/11 08:38:34;;;;;;;3.58;2.63;;;;;;;;;;5022016;28;20061;-69
2022/05/11 08:41:06;;;;;;;5.07;2.58;;;;;;;;;;5021900;28;20061;-66
2022/05/11 08:43:36;;;;;;;5.53;2.40;;;;;;;;;;5020641;28;20053;-66
2022/05/11 08:46:12;;;;;;;3.72;2.65;;;;;;;;;;5018836;28;20052;-66
2022/05/11 08:48:47;;;;;;;3.53;2.72;;;;;;;;;;5021285;28;20061;-65
2022/05/11 08:51:16;;;;;;;;;;;;;;;;;;5020597;28;20498;-65
2022/05/11 08:53:45;;;;;;;5.30;3.00;;;;;;;;;;5021973;28;19929;-68
2022/05/11 08:56:17;;;;;;;6.25;2.45;;;;;;;;;;5020606;28;20055;-66
2022/05/11 08:58:49;;;;;;;5.13;2.80;;;;;;;;;;5021854;28;20053;-69
2022/05/11 09:01:21;;;;;;;2.45;2.17;;;;;;;;;;5019202;28;20049;-67
2022/05/11 09:03:53;;;;;;;3.95;2.35;;;;;;;;;;5024017;28;20068;-66
2022/05/11 09:06:24;;;;;;;3.22;2.60;;;;;;;;;;5023452;28;20053;-66
2022/05/11 09:08:54;;;;;;;5.05;3.05;;;;;;;;;;5024056;28;20057;-67
2022/05/11 09:11:27;;;;;;;13.75;5.25;;;;;;;;;;5025467;28;20058;-69
2022/05/11 09:13:57;;;;;;;3.85;2.45;;;;;;;;;;5024744;28;20452;-67
2022/05/11 09:16:26;;;;;;;4.28;2.65;;;;;;;;;;5023973;28;20055;-65
2022/05/11 09:18:56;;;;;;;8.48;3.47;;;;;;;;;;5024767;28;20552;-65
2022/05/11 09:21:29;;;;;;;7.60;3.45;;;;;;;;;;5024222;28;20034;-66
2022/05/11 09:24:08;;;;;;;6.25;3.00;;;;;;;;;;5024661;28;20139;-67
2022/05/11 09:26:38;;;;;;;5.45;3.05;;;;;;;;;;5026065;28;20139;-66
2022/05/11 09:29:16;;;;;;;4.20;2.40;;;;;;;;;;5021065;28;20037;-69
2022/05/11 09:31:45;;;;;;;2.95;2.38;;;;;;;;;;5022721;28;20076;-66
2022/05/11 09:34:15;;;;;;;3.65;2.78;;;;;;;;;;5025520;28;20128;-66
2022/05/11 09:37:01;;;;;;;3.33;2.60;;;;;;;;;;5022877;28;20065;-68
2022/05/11 09:39:33;;;;;;;3.00;2.35;;;;;;;;;;5024571;28;20131;-66
2022/05/11 09:42:12;;;;;;;3.45;2.40;;;;;;;;;;5023114;28;20108;-66
2022/05/11 09:44:43;;;;;;;3.15;2.40;;;;;;;;;;5021601;28;20336;-66
2022/05/11 09:47:27;;;;;;;3.50;2.67;;;;;;;;;;5024879;28;20079;-67
2022/05/11 09:49:56;;;;;;;2.50;2.20;;;;;;;;;;5023960;28;20053;-66
2022/05/11 09:52:29;;;;;;;3.33;2.40;;;;;;;;;;5022177;28;20052;-70
2022/05/11 09:54:59;;;;;;;2.38;2.17;;;;;;;;;;5025098;28;20057;-66
2022/05/11 09:57:28;;;;;;;3.03;2.47;;;;;;;;;;5023682;28;20089;-67
2022/05/11 10:00:16;;;;;;;6.55;2.50;;;;;;;;;;5023354;28;20053;-66
2022/05/11 10:02:46;;;;;;;3.15;1.98;;;;;;;;;;5024282;28;20497;-65
2022/05/11 10:05:16;;;;;;;3.50;2.22;;;;;;;;;;5025217;28;20115;-67
2022/05/11 10:07:47;;;;;;;2.33;1.77;;;;;;;;;;5022646;28;20132;-67
2022/05/11 10:10:24;;;;;;;4.07;2.13;;;;;;;;;;5024519;28;20069;-67
2022/05/11 10:12:53;;;;;;;3.28;2.35;;;;;;;;;;5025074;28;20057;-67
2022/05/11 10:23:52;;;;;;;3.70;2.08;;;;;;;;;;5024136;28;20132;-66
2022/05/11 10:26:26;;;;;;;3.17;2.28;;;;;;;;;;5024340;28;20096;-68
2022/05/11 10:28:57;;;;;;;2.55;2.15;;;;;;;;;;5024140;28;20143;-67
2022/05/11 10:31:30;;;;;;;2.33;1.85;;;;;;;;;;5025009;28;20095;-67
2022/05/11 10:34:02;;;;;;;2.83;2.15;;;;;;;;;;5023347;28;20183;-68
2022/05/11 10:36:35;;;;;;;2.70;2.00;;;;;;;;;;5023772;28;21078;-66
2022/05/11 10:39:08;;;;;;;3.55;2.00;;;;;;;;;;5023880;28;20041;-69
2022/05/11 10:41:42;;;;;;;2.08;1.48;;;;;;;;;;5023467;28;20548;-67
2022/05/11 10:44:18;;;;;;;1.88;1.55;;;;;;;;;;5021121;28;20589;-67
2022/05/11 10:46:52;;;;;;;2.78;1.80;;;;;;;;;;5023897;28;20128;-67
2022/05/11 10:49:30;;;;;;;1.90;1.57;;;;;;;;;;5022878;28;20137;-67
2022/05/11 10:52:05;;;;;;;2.05;1.55;;;;;;;;;;5023488;28;20148;-68
2022/05/11 10:54:41;;;;;;;2.80;1.80;;;;;;;;;;5023668;28;21299;-68
2022/05/11 10:57:13;;;;;;;3.28;2.00;;;;;;;;;;5023873;28;20054;-68
2022/05/11 10:59:50;;;;;;;1.67;1.50;;;;;;;;;;5022938;28;20155;-73
2022/05/11 11:02:34;;;;;;;7.70;1.83;;;;;;;;;;5022770;28;20544;-66
2022/05/11 11:05:06;;;;;;;2.20;1.70;;;;;;;;;;5023232;28;20064;-67
2022/05/11 11:07:37;;;;;;;1.83;1.50;;;;;;;;;;5021999;28;20057;-72
2022/05/11 11:10:21;;;;;;;2.35;1.77;;;;;;;;;;5021791;28;20058;-67
2022/05/11 11:13:04;;;;;;;3.97;1.60;;;;;;;;;;5021863;28;20053;-70
2022/05/11 11:15:37;;;;;;;2.90;1.73;;;;;;;;;;5020670;28;20057;-70
2022/05/11 11:18:06;;;;;;;2.42;1.95;;;;;;;;;;5021220;28;20358;-68
2022/05/11 11:20:36;;;;;;;3.78;1.70;;;;;;;;;;5023996;28;20046;-68
2022/05/11 11:23:06;;;;;;;1.90;1.52;;;;;;;;;;5021530;28;20046;-69
2022/05/11 11:25:51;;;;;;;2.30;1.73;;;;;;;;;;5023517;28;20057;-67
2022/05/11 11:28:20;;;;;;;;;;;;;;;;;;5023053;28;20092;-67
2022/05/11 11:31:05;;;;;;;2.00;1.58;;;;;;;;;;5022643;28;19932;-67
2022/05/11 11:33:37;;;;;;;1.85;1.50;;;;;;;;;;5014018;28;20057;-70
2022/05/11 11:36:28;;;;;;;2.38;1.80;;;;;;;;;;5021088;28;20505;-67
2022/05/11 11:38:58;;;;;;;3.33;1.90;;;;;;;;;;5019958;28;20049;-67
2022/05/11 11:41:28;;;;;;;2.03;1.40;;;;;;;;;;5022256;28;20049;-68
2022/05/11 11:43:58;;;;;;;4.28;1.55;;;;;;;;;;5020680;28;20123;-71
2022/05/11 11:46:31;;;;;;;2.28;1.33;;;;;;;;;;5019510;28;20079;-66
2022/05/11 11:49:09;;;;;;;1.77;1.60;;;;;;;;;;5020623;28;20061;-70
2022/05/11 11:51:56;;;;;;;2.45;1.58;;;;;;;;;;5021707;28;20226;-68
2022/05/11 11:54:30;;;;;;;1.60;1.30;;;;;;;;;;5020677;28;20049;-68
2022/05/11 11:56:59;;;;;;;2.75;1.70;;;;;;;;;;5020756;28;20041;-68
2022/05/11 11:59:41;;;;;;;2.28;1.58;;;;;;;;;;5022302;28;20547;-69
2022/05/11 12:02:17;;;;;;;2.00;1.25;;;;;;;;;;5023159;28;20589;-66
2022/05/11 12:04:53;;;;;;;3.63;1.50;;;;;;;;;;5022640;28;20076;-68
2022/05/11 12:15:45;;;;;;;7.15;3.95;;;;;;;;;;5020285;28;20159;-67
2022/05/11 12:18:24;;;;;;;3.67;1.95;;;;;;;;;;5022430;28;20069;-68
2022/05/11 12:20:55;;;;;;;2.10;1.40;;;;;;;;;;5019330;28;20056;-68
2022/05/11 12:23:24;;;;;;;1.58;1.25;;;;;;;;;;5019040;28;20536;-68
2022/05/11 12:25:54;;;;;;;1.70;1.20;;;;;;;;;;5020513;28;20045;-68
2022/05/11 12:28:24;;;;;;;1.40;1.30;;;;;;;;;;5021472;28;20100;-67
2022/05/11 12:30:52;;;;;;;3.60;1.35;;;;;;;;;;5021117;28;20398;-69
2022/05/11 12:33:22;;;;;;;1.90;1.50;;;;;;;;;;5019632;28;20446;-69
2022/05/11 12:35:52;;;;;;;1.48;1.30;;;;;;;;;;5024494;28;20045;-68
2022/05/11 12:38:29;;;;;;;1.73;1.30;;;;;;;;;;5023312;28;20073;-68
2022/05/11 12:40:59;;;;;;;1.45;1.20;;;;;;;;;;5025297;28;20104;-69
2022/05/11 12:43:30;;;;;;;2.17;1.42;;;;;;;;;;5027107;28;20060;-70
2022/05/11 12:45:59;;;;;;;2.38;1.52;;;;;;;;;;5025330;28;20041;-69
2022/05/11 12:48:31;;;;;;;2.00;1.38;;;;;;;;;;5026382;28;20045;-70
2022/05/11 12:51:04;;;;;;;3.60;1.23;;;;;;;;;;5024921;28;20073;-67
2022/05/11 12:53:36;;;;;;;2.00;1.58;;;;;;;;;;5024325;28;20076;-66
2022/05/11 12:56:12;;;;;;;5.55;1.30;;;;;;;;;;5021406;28;20133;-70
2022/05/11 12:58:46;;;;;;;2.75;1.20;;;;;;;;;;5023593;28;20062;-70
2022/05/11 13:01:16;;;;;;;1.85;1.50;;;;;;;;;;5024312;28;20128;-71
2022/05/11 13:03:46;;;;;;;2.83;1.40;;;;;;;;;;5025014;28;20524;-67
2022/05/11 13:06:21;;;;;;;3.38;1.30;;;;;;;;;;5023507;28;20069;-70
2022/05/11 13:08:52;;;;;;;2.15;1.40;;;;;;;;;;5022648;28;20139;-67
2022/05/11 13:11:23;;;;;;;2.20;1.40;;;;;;;;;;5023593;28;20068;-69
2022/05/11 13:13:55;;;;;;;2.05;1.40;;;;;;;;;;5020939;28;20099;-70
2022/05/11 13:16:25;;;;;;;1.10;1.00;;;;;;;;;;5023949;28;20057;-67
2022/05/11 13:19:03;;;;;;;3.55;1.50;;;;;;;;;;5023550;28;20055;-68
2022/05/11 13:21:35;;;;;;;1.90;1.40;;;;;;;;;;5023100;28;20123;-67
2022/05/11 13:24:06;;;;;;;1.42;1.30;;;;;;;;;;5021997;28;20053;-68
2022/05/11 13:26:38;;;;;;;1.73;1.35;;;;;;;;;;5021110;28;20374;-68
2022/05/11 13:29:13;;;;;;;3.42;1.20;;;;;;;;;;5023067;28;20058;-68
2022/05/11 13:31:41;;;;;;;1.85;1.40;;;;;;;;;;5025224;28;20057;-69
2022/05/11 13:34:29;;;;;;;3.70;1.67;;;;;;;;;;5022217;28;20045;-68
2022/05/11 13:36:59;;;;;;;2.78;1.55;;;;;;;;;;5021600;28;20108;-67
2022/05/11 13:39:31;;;;;;;1.55;1.45;;;;;;;;;;5025207;28;20052;-68
2022/05/11 13:42:02;;;;;;;3.00;1.48;;;;;;;;;;5031071;28;20094;-67
2022/05/11 13:44:35;;;;;;;2.92;1.27;;;;;;;;;;5032058;28;20116;-67
2022/05/11 13:50:33;;;;;;;3.92;1.42;;;;;;;;;;5026976;28;20041;-68
2022/05/11 13:53:04;;;;;;;1.95;1.38;;;;;;;;;;5018991;28;20493;-67
2022/05/11 13:55:35;;;;;;;2.42;1.20;;;;;;;;;;5033787;28;20167;-67
2022/05/11 13:58:23;;;;;;;2.08;1.60;;;;;;;;;;5027582;28;20041;-68
2022/05/11 14:00:52;;;;;;;4.90;1.95;;;;;;;;;;5030694;28;20053;-67
2022/05/11 14:03:21;;;;;;;3.33;1.65;;;;;;;;;;5030525;28;20049;-67
2022/05/11 14:05:49;;;;;;;2.00;1.45;;;;;;;;;;5028023;28;20053;-70
2022/05/11 14:08:18;;;;;;;1.92;1.30;;;;;;;;;;5026293;28;20045;-67
2022/05/11 14:10:50;;;;;;;3.45;1.20;;;;;;;;;;5019814;28;20046;-67
2022/05/11 14:13:19;;;;;;;3.85;1.48;;;;;;;;;;5019651;28;20045;-67
2022/05/11 14:15:48;;;;;;;3.70;1.60;;;;;;;;;;5030507;28;20459;-67
2022/05/11 14:18:20;;;;;;;3.92;1.63;;;;;;;;;;5022737;28;20132;-69
2022/05/11 14:20:49;;;;;;;3.35;1.40;;;;;;;;;;5014029;28;20052;-68
2022/05/11 14:23:18;;;;;;;7.30;1.50;;;;;;;;;;5027363;28;20041;-69
2022/05/11 14:25:48;;;;;;;2.45;1.23;;;;;;;;;;5021402;28;20049;-69
2022/05/11 14:28:22;;;;;;;1.83;1.40;;;;;;;;;;5019277;28;20049;-67
2022/05/11 14:30:51;;;;;;;2.85;1.40;;;;;;;;;;5012086;28;20120;-67
2022/05/11 14:33:19;;;;;;;2.20;1.40;;;;;;;;;;5017122;28;20038;-67
2022/05/11 14:35:48;;;;;;;2.58;1.27;;;;;;;;;;5017279;28;20092;-68
2022/05/11 14:38:17;;;;;;;1.73;1.17;;;;;;;;;;5025267;28;20096;-67
2022/05/11 14:40:48;;;;;;;2.50;1.48;;;;;;;;;;5025712;28;20596;-68
2022/05/11 14:43:17;;;;;;;5.53;1.60;;;;;;;;;;5012246;28;20085;-67
2022/05/11 14:45:48;;;;;;;2.75;1.42;;;;;;;;;;5016829;28;20057;-68
2022/05/11 14:48:20;;;;;;;2.05;1.52;;;;;;;;;;5027028;28;20133;-69
2022/05/11 14:50:49;;;;;;;2.63;1.23;;;;;;;;;;5024443;28;20053;-68
2022/05/11 14:53:18;;;;;;;2.80;1.65;;;;;;;;;;5026375;28;20119;-67
2022/05/11 14:55:48;;;;;;;2.92;1.15;;;;;;;;;;5023044;28;20053;-69
2022/05/11 15:04:02;;;;;;;1.60;1.40;;;;;;;;;;4958016;28;20065;-71
2022/05/11 15:06:32;;;;;;;2.15;1.55;;;;;;;;;;5013945;28;20438;-68
2022/05/11 15:09:01;;;;;;;8.25;2.38;;;;;;;;;;5016914;28;20501;-68
2022/05/11 15:14:26;;;;;;;2.00;1.50;;;;;;;;;;5025508;28;20110;-69
2022/05/11 15:16:54;;;;;;;2.58;1.50;;;;;;;;;;5023624;28;20350;-68
2022/05/11 15:19:23;;;;;;;3.08;1.58;;;;;;;;;;5017123;28;20045;-69
2022/05/11 15:21:52;;;;;;;2.78;1.40;;;;;;;;;;5010371;28;20049;-68
2022/05/11 15:24:20;;;;;;;2.47;1.30;;;;;;;;;;5015066;28;20104;-68
2022/05/11 15:26:50;;;;;;;2.67;1.23;;;;;;;;;;5007487;28;20085;-67
2022/05/11 15:29:19;;;;;;;1.88;1.40;;;;;;;;;;5023687;28;20111;-68
2022/05/11 15:31:47;;;;;;;2.15;1.40;;;;;;;;;;5015141;28;20096;-69
2022/05/11 15:34:17;;;;;;;3.35;1.70;;;;;;;;;;5023377;28;20096;-68
2022/05/11 15:36:46;;;;;;;2.70;1.67;;;;;;;;;;5022027;28;20493;-68
2022/05/11 15:39:14;;;;;;;2.33;1.50;;;;;;;;;;5018994;28;20131;-69
2022/05/11 15:41:43;;;;;;;2.20;1.60;;;;;;;;;;5026318;28;20128;-68
2022/05/11 15:44:13;;;;;;;3.15;1.90;;;;;;;;;;5021231;28;20519;-69
2022/05/11 15:46:41;;;;;;;3.83;1.30;;;;;;;;;;5025845;28;20595;-69
2022/05/11 15:49:10;;;;;;;3.47;1.17;;;;;;;;;;5017333;28;20089;-68
2022/05/11 15:51:40;;;;;;;5.25;1.48;;;;;;;;;;5006253;28;20423;-68
2022/05/11 15:54:12;;;;;;;1.77;1.40;;;;;;;;;;5018759;28;20163;-67
2022/05/11 15:56:40;;;;;;;3.05;1.73;;;;;;;;;;5024811;28;20132;-68
2022/05/11 15:59:09;;;;;;;2.58;1.42;;;;;;;;;;5022047;28;20160;-68
2022/05/11 16:01:39;;;;;;;2.80;1.40;;;;;;;;;;5021662;28;20085;-69
2022/05/11 16:04:08;;;;;;;3.30;1.30;;;;;;;;;;5014540;28;20061;-68
2022/05/11 16:06:37;;;;;;;2.15;1.55;;;;;;;;;;5022322;28;20129;-68
2022/05/11 16:09:06;;;;;;;2.08;1.58;;;;;;;;;;5022573;28;20136;-70
2022/05/11 16:11:37;;;;;;;1.85;1.17;;;;;;;;;;5028717;28;20057;-67
2022/05/11 16:14:05;;;;;;;2.65;1.30;;;;;;;;;;5030715;28;20132;-69